< Cyclone 202108 2021 Season Cyclone 202110 >
Cyclone 202109 (Kimi)
General InformationTrack Information on Google Maps || ResourceGoogle EarthGE AnimationAtom FeedGeoJSON
Year Month Day Hour Lat. Long. Pressure (hPa) Wind (kt) Class Image Chart
2021 1 15 12 -13.6 146.0 1002 20 2 Image --
2021 1 15 18 -13.7 146.1 1002 20 2 Image --
2021 1 15 21 -13.8 146.2 1002 20 2 Image --
2021 1 16 00 -14.0 146.4 1002 25 2 Image --
2021 1 16 03 -14.2 146.3 1001 25 2 Image --
2021 1 16 06 -14.4 146.3 1001 25 2 Image --
2021 1 16 12 -14.3 146.3 1000 30 2 Image --
2021 1 16 18 -14.6 146.3 1000 30 2 Image --
2021 1 16 21 -14.7 146.3 999 35 3 Image --
2021 1 17 00 -14.9 146.4 998 40 3 Image --
2021 1 17 03 -15.2 146.5 995 40 3 Image --
2021 1 17 06 -15.4 146.5 994 40 3 Image --
2021 1 17 09 -15.5 146.6 994 40 3 Image --
2021 1 17 12 -15.7 146.6 994 40 3 Image --
2021 1 17 15 -15.9 146.7 991 45 3 Image --
2021 1 17 18 -16.2 146.6 990 45 3 Image --
2021 1 17 21 -16.5 146.5 991 45 3 Image --
2021 1 18 00 -16.9 146.6 993 45 3 Image --
2021 1 18 03 -17.4 146.8 990 50 4 Image --
2021 1 18 06 -17.7 147.1 987 55 4 Image --
2021 1 18 09 -18.0 147.5 989 50 4 Image --
2021 1 18 12 -18.1 147.5 996 40 3 Image --
2021 1 18 15 -18.2 147.6 998 35 3 Image --
2021 1 18 18 -18.2 147.6 998 35 3 Image --
2021 1 18 21 -18.3 147.4 1001 30 2 Image --
2021 1 19 00 -18.2 147.4 1005 25 2 Image --
2021 1 19 03 -17.9 147.1 1006 20 2 Image --
2021 1 19 06 -17.7 146.9 1006 0 0 Image --
2021 1 19 12 -17.3 146.5 1006 0 0 Image --
2021 1 19 18 -16.8 146.2 1006 0 0 Image --
< Cyclone 202108 2021 Season Cyclone 202110 >

Help